sensor_id;sensor_type;location;lat;lon;timestamp;P1;durP1;ratioP1;P2;durP2;ratioP2
21492;SDS011;10908;50.690;4.400;2024-01-15T00:02:19;35.90;;;14.32;;
21492;SDS011;10908;50.690;4.400;2024-01-15T00:04:45;32.97;;;12.80;;
21492;SDS011;10908;50.690;4.400;2024-01-15T00:07:10;34.70;;;13.77;;
21492;SDS011;10908;50.690;4.400;2024-01-15T00:09:36;32.80;;;12.80;;
21492;SDS011;10908;50.690;4.400;2024-01-15T00:12:02;31.60;;;13.18;;
21492;SDS011;10908;50.690;4.400;2024-01-15T00:14:28;31.15;;;12.77;;
21492;SDS011;10908;50.690;4.400;2024-01-15T00:16:54;32.42;;;12.27;;
21492;SDS011;10908;50.690;4.400;2024-01-15T00:19:23;33.85;;;12.50;;
21492;SDS011;10908;50.690;4.400;2024-01-15T00:21:49;32.88;;;12.85;;
21492;SDS011;10908;50.690;4.400;2024-01-15T00:24:15;30.88;;;12.00;;
21492;SDS011;10908;50.690;4.400;2024-01-15T00:26:41;29.02;;;11.73;;
21492;SDS011;10908;50.690;4.400;2024-01-15T00:29:10;26.85;;;10.95;;
21492;SDS011;10908;50.690;4.400;2024-01-15T00:31:35;26.33;;;11.45;;
21492;SDS011;10908;50.690;4.400;2024-01-15T00:34:01;28.48;;;10.95;;
21492;SDS011;10908;50.690;4.400;2024-01-15T00:36:27;24.38;;;10.48;;
21492;SDS011;10908;50.690;4.400;2024-01-15T00:38:53;29.33;;;10.27;;
21492;SDS011;10908;50.690;4.400;2024-01-15T00:41:19;30.17;;;11.43;;
21492;SDS011;10908;50.690;4.400;2024-01-15T00:43:45;25.17;;;10.55;;
21492;SDS011;10908;50.690;4.400;2024-01-15T00:46:11;22.73;;;10.50;;
21492;SDS011;10908;50.690;4.400;2024-01-15T00:48:36;21.65;;;9.95;;
21492;SDS011;10908;50.690;4.400;2024-01-15T00:51:03;22.40;;;9.40;;
21492;SDS011;10908;50.690;4.400;2024-01-15T00:53:29;26.50;;;10.57;;
21492;SDS011;10908;50.690;4.400;2024-01-15T00:55:56;24.08;;;10.05;;
21492;SDS011;10908;50.690;4.400;2024-01-15T00:58:21;24.02;;;10.05;;
21492;SDS011;10908;50.690;4.400;2024-01-15T01:00:47;24.98;;;11.20;;
21492;SDS011;10908;50.690;4.400;2024-01-15T01:03:13;27.30;;;10.85;;
21492;SDS011;10908;50.690;4.400;2024-01-15T01:05:38;25.25;;;10.90;;
21492;SDS011;10908;50.690;4.400;2024-01-15T01:08:04;29.60;;;11.20;;
21492;SDS011;10908;50.690;4.400;2024-01-15T01:10:30;29.30;;;12.10;;
21492;SDS011;10908;50.690;4.400;2024-01-15T01:12:56;29.05;;;10.35;;
21492;SDS011;10908;50.690;4.400;2024-01-15T01:15:21;27.50;;;11.38;;
21492;SDS011;10908;50.690;4.400;2024-01-15T01:17:47;28.30;;;11.45;;
21492;SDS011;10908;50.690;4.400;2024-01-15T01:20:13;31.65;;;11.70;;
21492;SDS011;10908;50.690;4.400;2024-01-15T01:22:40;29.05;;;11.07;;
21492;SDS011;10908;50.690;4.400;2024-01-15T01:25:06;25.77;;;10.95;;
21492;SDS011;10908;50.690;4.400;2024-01-15T01:27:32;28.20;;;10.95;;
21492;SDS011;10908;50.690;4.400;2024-01-15T01:29:58;26.70;;;11.07;;
21492;SDS011;10908;50.690;4.400;2024-01-15T01:32:24;21.63;;;10.43;;
21492;SDS011;10908;50.690;4.400;2024-01-15T01:34:49;25.33;;;10.32;;
21492;SDS011;10908;50.690;4.400;2024-01-15T01:37:15;24.35;;;10.40;;
21492;SDS011;10908;50.690;4.400;2024-01-15T01:39:41;25.88;;;9.68;;
21492;SDS011;10908;50.690;4.400;2024-01-15T01:42:07;23.50;;;9.77;;
21492;SDS011;10908;50.690;4.400;2024-01-15T01:44:33;22.25;;;10.48;;
21492;SDS011;10908;50.690;4.400;2024-01-15T01:46:58;23.35;;;10.45;;
21492;SDS011;10908;50.690;4.400;2024-01-15T01:49:25;23.90;;;10.18;;
21492;SDS011;10908;50.690;4.400;2024-01-15T01:51:52;22.02;;;9.88;;
21492;SDS011;10908;50.690;4.400;2024-01-15T01:54:19;27.08;;;10.70;;
21492;SDS011;10908;50.690;4.400;2024-01-15T01:56:45;22.88;;;9.93;;
21492;SDS011;10908;50.690;4.400;2024-01-15T01:59:13;26.88;;;10.60;;
21492;SDS011;10908;50.690;4.400;2024-01-15T02:01:39;28.33;;;10.55;;
21492;SDS011;10908;50.690;4.400;2024-01-15T02:04:05;23.88;;;10.52;;
21492;SDS011;10908;50.690;4.400;2024-01-15T02:06:31;25.13;;;10.50;;
21492;SDS011;10908;50.690;4.400;2024-01-15T02:08:57;25.80;;;10.45;;
21492;SDS011;10908;50.690;4.400;2024-01-15T02:11:23;23.73;;;10.13;;
21492;SDS011;10908;50.690;4.400;2024-01-15T02:13:48;24.20;;;10.45;;
21492;SDS011;10908;50.690;4.400;2024-01-15T02:16:14;25.23;;;10.27;;
21492;SDS011;10908;50.690;4.400;2024-01-15T02:18:43;26.40;;;10.90;;
21492;SDS011;10908;50.690;4.400;2024-01-15T02:21:09;24.45;;;9.98;;
21492;SDS011;10908;50.690;4.400;2024-01-15T02:23:36;22.55;;;9.93;;
21492;SDS011;10908;50.690;4.400;2024-01-15T02:26:02;23.38;;;10.00;;
21492;SDS011;10908;50.690;4.400;2024-01-15T02:28:29;24.83;;;10.13;;
21492;SDS011;10908;50.690;4.400;2024-01-15T02:30:55;26.17;;;10.75;;
21492;SDS011;10908;50.690;4.400;2024-01-15T02:33:21;24.77;;;10.57;;
21492;SDS011;10908;50.690;4.400;2024-01-15T02:35:46;23.17;;;9.80;;
21492;SDS011;10908;50.690;4.400;2024-01-15T02:38:15;22.77;;;9.88;;
21492;SDS011;10908;50.690;4.400;2024-01-15T02:40:40;23.88;;;10.45;;
21492;SDS011;10908;50.690;4.400;2024-01-15T02:43:06;25.50;;;10.57;;
21492;SDS011;10908;50.690;4.400;2024-01-15T02:45:32;25.58;;;10.27;;
21492;SDS011;10908;50.690;4.400;2024-01-15T02:47:58;24.83;;;10.05;;
21492;SDS011;10908;50.690;4.400;2024-01-15T02:50:23;23.70;;;10.43;;
21492;SDS011;10908;50.690;4.400;2024-01-15T02:52:49;29.95;;;11.80;;
21492;SDS011;10908;50.690;4.400;2024-01-15T02:55:15;27.42;;;11.75;;
21492;SDS011;10908;50.690;4.400;2024-01-15T02:57:40;29.02;;;12.60;;
21492;SDS011;10908;50.690;4.400;2024-01-15T03:00:06;32.78;;;12.05;;
21492;SDS011;10908;50.690;4.400;2024-01-15T03:02:32;30.25;;;12.70;;
21492;SDS011;10908;50.690;4.400;2024-01-15T03:05:00;30.60;;;13.45;;
21492;SDS011;10908;50.690;4.400;2024-01-15T03:07:28;33.63;;;13.07;;
21492;SDS011;10908;50.690;4.400;2024-01-15T03:09:55;33.00;;;13.57;;
21492;SDS011;10908;50.690;4.400;2024-01-15T03:12:20;27.92;;;12.73;;
21492;SDS011;10908;50.690;4.400;2024-01-15T03:14:46;32.30;;;13.63;;
21492;SDS011;10908;50.690;4.400;2024-01-15T03:17:11;34.00;;;13.98;;
21492;SDS011;10908;50.690;4.400;2024-01-15T03:19:37;32.28;;;13.57;;
21492;SDS011;10908;50.690;4.400;2024-01-15T03:22:03;29.52;;;13.13;;
21492;SDS011;10908;50.690;4.400;2024-01-15T03:24:29;31.55;;;13.30;;
21492;SDS011;10908;50.690;4.400;2024-01-15T03:26:56;31.98;;;12.88;;
21492;SDS011;10908;50.690;4.400;2024-01-15T03:29:22;28.30;;;13.18;;
21492;SDS011;10908;50.690;4.400;2024-01-15T03:31:48;31.15;;;13.32;;
21492;SDS011;10908;50.690;4.400;2024-01-15T03:34:13;31.05;;;13.00;;
21492;SDS011;10908;50.690;4.400;2024-01-15T03:36:39;32.60;;;13.30;;
21492;SDS011;10908;50.690;4.400;2024-01-15T03:39:05;31.52;;;13.30;;
21492;SDS011;10908;50.690;4.400;2024-01-15T03:41:32;30.23;;;13.63;;
21492;SDS011;10908;50.690;4.400;2024-01-15T03:43:58;28.48;;;13.23;;
21492;SDS011;10908;50.690;4.400;2024-01-15T03:46:24;30.58;;;13.55;;
21492;SDS011;10908;50.690;4.400;2024-01-15T03:48:49;31.08;;;13.25;;
21492;SDS011;10908;50.690;4.400;2024-01-15T03:51:16;33.45;;;14.63;;
21492;SDS011;10908;50.690;4.400;2024-01-15T03:53:42;30.15;;;13.63;;
21492;SDS011;10908;50.690;4.400;2024-01-15T03:56:08;35.45;;;14.40;;
21492;SDS011;10908;50.690;4.400;2024-01-15T03:58:33;27.67;;;13.18;;
21492;SDS011;10908;50.690;4.400;2024-01-15T04:00:59;27.95;;;12.98;;
21492;SDS011;10908;50.690;4.400;2024-01-15T04:03:25;30.25;;;13.07;;
21492;SDS011;10908;50.690;4.400;2024-01-15T04:05:50;33.83;;;14.15;;
21492;SDS011;10908;50.690;4.400;2024-01-15T04:08:16;32.20;;;13.75;;
21492;SDS011;10908;50.690;4.400;2024-01-15T04:10:41;32.10;;;13.13;;
21492;SDS011;10908;50.690;4.400;2024-01-15T04:13:07;29.88;;;12.75;;
21492;SDS011;10908;50.690;4.400;2024-01-15T04:15:33;31.33;;;13.25;;
21492;SDS011;10908;50.690;4.400;2024-01-15T04:17:58;27.27;;;12.35;;
21492;SDS011;10908;50.690;4.400;2024-01-15T04:20:26;28.85;;;12.52;;
21492;SDS011;10908;50.690;4.400;2024-01-15T04:22:51;30.92;;;12.80;;
21492;SDS011;10908;50.690;4.400;2024-01-15T04:25:17;29.42;;;12.43;;
21492;SDS011;10908;50.690;4.400;2024-01-15T04:27:43;29.35;;;13.13;;
21492;SDS011;10908;50.690;4.400;2024-01-15T04:30:08;25.70;;;11.98;;
21492;SDS011;10908;50.690;4.400;2024-01-15T04:32:34;32.10;;;12.55;;
21492;SDS011;10908;50.690;4.400;2024-01-15T04:35:00;28.60;;;12.27;;
21492;SDS011;10908;50.690;4.400;2024-01-15T04:37:25;26.63;;;11.43;;
21492;SDS011;10908;50.690;4.400;2024-01-15T04:39:51;26.30;;;10.75;;
21492;SDS011;10908;50.690;4.400;2024-01-15T04:42:19;21.75;;;10.00;;
21492;SDS011;10908;50.690;4.400;2024-01-15T04:44:48;27.55;;;10.75;;
21492;SDS011;10908;50.690;4.400;2024-01-15T04:47:14;24.13;;;10.20;;
21492;SDS011;10908;50.690;4.400;2024-01-15T04:49:40;21.42;;;10.00;;
21492;SDS011;10908;50.690;4.400;2024-01-15T04:52:05;23.10;;;9.25;;
21492;SDS011;10908;50.690;4.400;2024-01-15T04:54:31;20.20;;;8.32;;
21492;SDS011;10908;50.690;4.400;2024-01-15T04:56:56;17.58;;;8.18;;
21492;SDS011;10908;50.690;4.400;2024-01-15T04:59:22;19.92;;;8.57;;
21492;SDS011;10908;50.690;4.400;2024-01-15T05:01:48;21.85;;;8.68;;
21492;SDS011;10908;50.690;4.400;2024-01-15T05:04:14;20.50;;;8.63;;
21492;SDS011;10908;50.690;4.400;2024-01-15T05:06:39;19.00;;;8.93;;
21492;SDS011;10908;50.690;4.400;2024-01-15T05:09:05;19.20;;;9.52;;
21492;SDS011;10908;50.690;4.400;2024-01-15T05:11:31;19.75;;;8.40;;
21492;SDS011;10908;50.690;4.400;2024-01-15T05:13:57;17.80;;;9.10;;
21492;SDS011;10908;50.690;4.400;2024-01-15T05:16:23;21.02;;;10.23;;
21492;SDS011;10908;50.690;4.400;2024-01-15T05:18:48;20.02;;;10.10;;
21492;SDS011;10908;50.690;4.400;2024-01-15T05:21:14;21.88;;;9.85;;
21492;SDS011;10908;50.690;4.400;2024-01-15T05:23:40;18.70;;;9.82;;
21492;SDS011;10908;50.690;4.400;2024-01-15T05:26:05;21.67;;;10.60;;
21492;SDS011;10908;50.690;4.400;2024-01-15T05:28:31;20.92;;;10.65;;
21492;SDS011;10908;50.690;4.400;2024-01-15T05:30:56;22.58;;;11.70;;
21492;SDS011;10908;50.690;4.400;2024-01-15T05:33:23;25.13;;;11.75;;
21492;SDS011;10908;50.690;4.400;2024-01-15T05:35:48;25.02;;;12.23;;
21492;SDS011;10908;50.690;4.400;2024-01-15T05:38:15;24.00;;;12.30;;
21492;SDS011;10908;50.690;4.400;2024-01-15T05:40:41;27.42;;;12.40;;
21492;SDS011;10908;50.690;4.400;2024-01-15T05:43:07;24.45;;;12.40;;
21492;SDS011;10908;50.690;4.400;2024-01-15T05:45:33;27.45;;;13.13;;
21492;SDS011;10908;50.690;4.400;2024-01-15T05:48:00;26.38;;;13.00;;
21492;SDS011;10908;50.690;4.400;2024-01-15T05:50:25;25.20;;;12.73;;
21492;SDS011;10908;50.690;4.400;2024-01-15T05:52:51;25.60;;;13.20;;
21492;SDS011;10908;50.690;4.400;2024-01-15T05:55:17;27.35;;;12.93;;
21492;SDS011;10908;50.690;4.400;2024-01-15T05:57:43;25.73;;;12.73;;
21492;SDS011;10908;50.690;4.400;2024-01-15T06:00:09;26.75;;;13.40;;
21492;SDS011;10908;50.690;4.400;2024-01-15T06:02:37;25.83;;;12.35;;
21492;SDS011;10908;50.690;4.400;2024-01-15T06:05:03;27.58;;;13.07;;
21492;SDS011;10908;50.690;4.400;2024-01-15T06:07:29;27.50;;;12.93;;
21492;SDS011;10908;50.690;4.400;2024-01-15T06:09:55;24.23;;;12.10;;
21492;SDS011;10908;50.690;4.400;2024-01-15T06:12:23;24.10;;;12.48;;
21492;SDS011;10908;50.690;4.400;2024-01-15T06:14:48;24.42;;;12.82;;
21492;SDS011;10908;50.690;4.400;2024-01-15T06:17:14;27.17;;;11.73;;
21492;SDS011;10908;50.690;4.400;2024-01-15T06:19:39;24.40;;;11.60;;
21492;SDS011;10908;50.690;4.400;2024-01-15T06:22:05;21.83;;;11.35;;
21492;SDS011;10908;50.690;4.400;2024-01-15T06:24:31;20.60;;;10.02;;
21492;SDS011;10908;50.690;4.400;2024-01-15T06:26:56;21.67;;;11.13;;
21492;SDS011;10908;50.690;4.400;2024-01-15T06:29:25;24.05;;;11.43;;
21492;SDS011;10908;50.690;4.400;2024-01-15T06:31:54;21.70;;;11.75;;
21492;SDS011;10908;50.690;4.400;2024-01-15T06:34:20;21.55;;;11.75;;
21492;SDS011;10908;50.690;4.400;2024-01-15T06:36:45;23.08;;;12.05;;
21492;SDS011;10908;50.690;4.400;2024-01-15T06:39:11;24.83;;;12.73;;
21492;SDS011;10908;50.690;4.400;2024-01-15T06:41:37;20.90;;;10.55;;
21492;SDS011;10908;50.690;4.400;2024-01-15T06:44:08;24.63;;;12.10;;
21492;SDS011;10908;50.690;4.400;2024-01-15T06:46:38;20.20;;;10.45;;
21492;SDS011;10908;50.690;4.400;2024-01-15T06:49:07;25.30;;;11.18;;
21492;SDS011;10908;50.690;4.400;2024-01-15T06:51:33;21.30;;;10.98;;
21492;SDS011;10908;50.690;4.400;2024-01-15T06:53:58;21.77;;;10.32;;
21492;SDS011;10908;50.690;4.400;2024-01-15T06:56:24;20.80;;;9.77;;
21492;SDS011;10908;50.690;4.400;2024-01-15T06:58:49;18.23;;;8.95;;
21492;SDS011;10908;50.690;4.400;2024-01-15T07:01:15;17.23;;;7.63;;
21492;SDS011;10908;50.690;4.400;2024-01-15T07:03:41;15.40;;;7.40;;
21492;SDS011;10908;50.690;4.400;2024-01-15T07:06:06;14.15;;;6.85;;
21492;SDS011;10908;50.690;4.400;2024-01-15T07:08:32;12.10;;;5.97;;
21492;SDS011;10908;50.690;4.400;2024-01-15T07:10:57;12.70;;;5.78;;
21492;SDS011;10908;50.690;4.400;2024-01-15T07:13:23;11.27;;;5.38;;
21492;SDS011;10908;50.690;4.400;2024-01-15T07:15:49;11.20;;;5.53;;
21492;SDS011;10908;50.690;4.400;2024-01-15T07:18:15;12.00;;;5.55;;
21492;SDS011;10908;50.690;4.400;2024-01-15T07:20:41;13.82;;;6.18;;
21492;SDS011;10908;50.690;4.400;2024-01-15T07:23:07;16.58;;;6.28;;
21492;SDS011;10908;50.690;4.400;2024-01-15T07:25:32;14.73;;;6.47;;
21492;SDS011;10908;50.690;4.400;2024-01-15T07:27:58;16.70;;;7.47;;
21492;SDS011;10908;50.690;4.400;2024-01-15T07:30:24;15.25;;;6.80;;
21492;SDS011;10908;50.690;4.400;2024-01-15T07:32:50;14.93;;;6.43;;
21492;SDS011;10908;50.690;4.400;2024-01-15T07:35:16;15.68;;;6.53;;
21492;SDS011;10908;50.690;4.400;2024-01-15T07:37:41;14.98;;;6.38;;
21492;SDS011;10908;50.690;4.400;2024-01-15T07:40:07;13.60;;;5.78;;
21492;SDS011;10908;50.690;4.400;2024-01-15T07:42:34;14.05;;;5.50;;
21492;SDS011;10908;50.690;4.400;2024-01-15T07:45:00;12.90;;;5.40;;
21492;SDS011;10908;50.690;4.400;2024-01-15T07:47:26;12.70;;;5.30;;
21492;SDS011;10908;50.690;4.400;2024-01-15T07:49:52;13.35;;;4.90;;
21492;SDS011;10908;50.690;4.400;2024-01-15T07:52:18;12.35;;;4.97;;
21492;SDS011;10908;50.690;4.400;2024-01-15T07:54:44;13.95;;;5.63;;
21492;SDS011;10908;50.690;4.400;2024-01-15T07:57:10;19.95;;;8.07;;
21492;SDS011;10908;50.690;4.400;2024-01-15T07:59:36;11.95;;;4.13;;
21492;SDS011;10908;50.690;4.400;2024-01-15T08:02:01;8.18;;;3.30;;
21492;SDS011;10908;50.690;4.400;2024-01-15T08:04:27;14.05;;;3.55;;
21492;SDS011;10908;50.690;4.400;2024-01-15T08:06:53;10.40;;;3.72;;
21492;SDS011;10908;50.690;4.400;2024-01-15T08:09:19;8.63;;;3.50;;
21492;SDS011;10908;50.690;4.400;2024-01-15T08:11:45;11.07;;;4.22;;
21492;SDS011;10908;50.690;4.400;2024-01-15T08:14:10;12.55;;;4.05;;
21492;SDS011;10908;50.690;4.400;2024-01-15T08:16:37;9.95;;;3.80;;
21492;SDS011;10908;50.690;4.400;2024-01-15T08:19:03;12.32;;;4.18;;
21492;SDS011;10908;50.690;4.400;2024-01-15T08:21:29;10.55;;;3.75;;
21492;SDS011;10908;50.690;4.400;2024-01-15T08:23:58;11.30;;;3.42;;
21492;SDS011;10908;50.690;4.400;2024-01-15T08:26:27;9.60;;;3.78;;
21492;SDS011;10908;50.690;4.400;2024-01-15T08:28:53;10.30;;;4.15;;
21492;SDS011;10908;50.690;4.400;2024-01-15T08:31:20;10.48;;;3.35;;
21492;SDS011;10908;50.690;4.400;2024-01-15T08:33:46;10.60;;;4.28;;
21492;SDS011;10908;50.690;4.400;2024-01-15T08:36:11;10.00;;;3.45;;
21492;SDS011;10908;50.690;4.400;2024-01-15T08:38:37;9.32;;;3.38;;
21492;SDS011;10908;50.690;4.400;2024-01-15T08:41:03;8.13;;;3.45;;
21492;SDS011;10908;50.690;4.400;2024-01-15T08:43:29;13.43;;;3.53;;
21492;SDS011;10908;50.690;4.400;2024-01-15T08:45:56;10.68;;;3.00;;
21492;SDS011;10908;50.690;4.400;2024-01-15T08:48:22;11.23;;;2.92;;
21492;SDS011;10908;50.690;4.400;2024-01-15T08:50:47;8.10;;;2.60;;
21492;SDS011;10908;50.690;4.400;2024-01-15T08:53:13;8.93;;;2.53;;
21492;SDS011;10908;50.690;4.400;2024-01-15T08:55:39;6.80;;;2.45;;
21492;SDS011;10908;50.690;4.400;2024-01-15T08:58:07;9.32;;;2.72;;
21492;SDS011;10908;50.690;4.400;2024-01-15T09:00:33;8.85;;;2.88;;
21492;SDS011;10908;50.690;4.400;2024-01-15T09:02:59;16.60;;;3.00;;
21492;SDS011;10908;50.690;4.400;2024-01-15T09:05:25;12.63;;;3.20;;
21492;SDS011;10908;50.690;4.400;2024-01-15T09:07:50;11.48;;;2.70;;
21492;SDS011;10908;50.690;4.400;2024-01-15T09:10:19;9.40;;;2.58;;
21492;SDS011;10908;50.690;4.400;2024-01-15T09:12:45;9.15;;;2.20;;
21492;SDS011;10908;50.690;4.400;2024-01-15T09:15:11;7.65;;;2.42;;
21492;SDS011;10908;50.690;4.400;2024-01-15T09:17:37;10.75;;;2.97;;
21492;SDS011;10908;50.690;4.400;2024-01-15T09:20:03;8.10;;;2.65;;
21492;SDS011;10908;50.690;4.400;2024-01-15T09:22:30;9.65;;;2.08;;
21492;SDS011;10908;50.690;4.400;2024-01-15T09:24:56;7.70;;;1.60;;
21492;SDS011;10908;50.690;4.400;2024-01-15T09:27:22;9.15;;;1.70;;
21492;SDS011;10908;50.690;4.400;2024-01-15T09:29:47;6.00;;;1.90;;
21492;SDS011;10908;50.690;4.400;2024-01-15T09:32:13;7.35;;;1.90;;
21492;SDS011;10908;50.690;4.400;2024-01-15T09:34:40;7.85;;;1.92;;
21492;SDS011;10908;50.690;4.400;2024-01-15T09:37:06;6.90;;;1.70;;
21492;SDS011;10908;50.690;4.400;2024-01-15T09:39:32;6.85;;;1.90;;
21492;SDS011;10908;50.690;4.400;2024-01-15T09:41:58;8.90;;;1.80;;
21492;SDS011;10908;50.690;4.400;2024-01-15T09:44:24;6.60;;;1.60;;
21492;SDS011;10908;50.690;4.400;2024-01-15T09:46:51;4.78;;;1.70;;
21492;SDS011;10908;50.690;4.400;2024-01-15T09:49:17;8.52;;;1.63;;
21492;SDS011;10908;50.690;4.400;2024-01-15T09:51:44;10.13;;;2.05;;
21492;SDS011;10908;50.690;4.400;2024-01-15T09:54:09;9.35;;;1.67;;
21492;SDS011;10908;50.690;4.400;2024-01-15T09:56:35;5.88;;;1.67;;
21492;SDS011;10908;50.690;4.400;2024-01-15T09:59:01;11.90;;;2.10;;
21492;SDS011;10908;50.690;4.400;2024-01-15T10:01:29;8.60;;;1.98;;
21492;SDS011;10908;50.690;4.400;2024-01-15T10:03:57;11.13;;;1.88;;
21492;SDS011;10908;50.690;4.400;2024-01-15T10:06:23;9.50;;;1.67;;
21492;SDS011;10908;50.690;4.400;2024-01-15T10:08:52;7.05;;;1.63;;
21492;SDS011;10908;50.690;4.400;2024-01-15T10:11:21;7.95;;;1.55;;
21492;SDS011;10908;50.690;4.400;2024-01-15T10:13:46;11.07;;;1.77;;
21492;SDS011;10908;50.690;4.400;2024-01-15T10:16:16;9.05;;;1.77;;
21492;SDS011;10908;50.690;4.400;2024-01-15T10:18:41;9.10;;;1.60;;
21492;SDS011;10908;50.690;4.400;2024-01-15T10:21:07;7.78;;;1.70;;
21492;SDS011;10908;50.690;4.400;2024-01-15T10:23:33;6.68;;;1.55;;
21492;SDS011;10908;50.690;4.400;2024-01-15T10:25:59;9.65;;;1.60;;
21492;SDS011;10908;50.690;4.400;2024-01-15T10:28:26;7.78;;;1.60;;
21492;SDS011;10908;50.690;4.400;2024-01-15T10:30:53;9.85;;;1.80;;
21492;SDS011;10908;50.690;4.400;2024-01-15T10:33:24;9.85;;;1.70;;
21492;SDS011;10908;50.690;4.400;2024-01-15T10:35:56;6.72;;;1.35;;
21492;SDS011;10908;50.690;4.400;2024-01-15T10:38:23;8.07;;;1.58;;
21492;SDS011;10908;50.690;4.400;2024-01-15T10:40:53;6.05;;;1.70;;
21492;SDS011;10908;50.690;4.400;2024-01-15T10:43:19;7.45;;;1.60;;
21492;SDS011;10908;50.690;4.400;2024-01-15T10:45:46;5.47;;;1.58;;
21492;SDS011;10908;50.690;4.400;2024-01-15T10:48:13;12.77;;;1.90;;
21492;SDS011;10908;50.690;4.400;2024-01-15T10:50:39;8.95;;;1.77;;
21492;SDS011;10908;50.690;4.400;2024-01-15T10:53:04;6.47;;;1.63;;
21492;SDS011;10908;50.690;4.400;2024-01-15T10:55:34;7.43;;;1.48;;
21492;SDS011;10908;50.690;4.400;2024-01-15T10:58:01;5.53;;;1.60;;
21492;SDS011;10908;50.690;4.400;2024-01-15T11:00:28;7.43;;;1.65;;
21492;SDS011;10908;50.690;4.400;2024-01-15T11:02:55;7.28;;;1.98;;
21492;SDS011;10908;50.690;4.400;2024-01-15T11:05:24;6.97;;;1.40;;
21492;SDS011;10908;50.690;4.400;2024-01-15T11:07:50;8.75;;;1.88;;
21492;SDS011;10908;50.690;4.400;2024-01-15T11:13:08;8.23;;;1.77;;
21492;SDS011;10908;50.690;4.400;2024-01-15T11:15:54;8.70;;;1.40;;
21492;SDS011;10908;50.690;4.400;2024-01-15T11:18:23;6.93;;;1.60;;
21492;SDS011;10908;50.690;4.400;2024-01-15T11:23:45;8.05;;;1.30;;
21492;SDS011;10908;50.690;4.400;2024-01-15T11:26:28;7.88;;;1.75;;
21492;SDS011;10908;50.690;4.400;2024-01-15T11:29:06;7.53;;;1.67;;
21492;SDS011;10908;50.690;4.400;2024-01-15T11:37:17;5.57;;;1.55;;
21492;SDS011;10908;50.690;4.400;2024-01-15T11:39:43;6.72;;;1.30;;
21492;SDS011;10908;50.690;4.400;2024-01-15T11:42:10;6.45;;;1.00;;
21492;SDS011;10908;50.690;4.400;2024-01-15T11:44:37;6.25;;;1.27;;
21492;SDS011;10908;50.690;4.400;2024-01-15T11:47:03;9.23;;;1.48;;
21492;SDS011;10908;50.690;4.400;2024-01-15T11:52:04;8.23;;;1.25;;
21492;SDS011;10908;50.690;4.400;2024-01-15T11:54:32;5.40;;;0.70;;
21492;SDS011;10908;50.690;4.400;2024-01-15T11:57:01;11.00;;;1.38;;
21492;SDS011;10908;50.690;4.400;2024-01-15T11:59:33;6.18;;;1.27;;
21492;SDS011;10908;50.690;4.400;2024-01-15T12:01:58;5.75;;;1.15;;
21492;SDS011;10908;50.690;4.400;2024-01-15T12:04:24;5.25;;;1.00;;
21492;SDS011;10908;50.690;4.400;2024-01-15T12:06:49;7.82;;;0.98;;
21492;SDS011;10908;50.690;4.400;2024-01-15T12:09:18;6.03;;;1.02;;
21492;SDS011;10908;50.690;4.400;2024-01-15T12:11:45;14.93;;;1.20;;
21492;SDS011;10908;50.690;4.400;2024-01-15T12:14:16;5.90;;;1.17;;
21492;SDS011;10908;50.690;4.400;2024-01-15T12:16:41;10.80;;;1.17;;
21492;SDS011;10908;50.690;4.400;2024-01-15T12:19:07;9.07;;;1.67;;
21492;SDS011;10908;50.690;4.400;2024-01-15T12:21:33;7.50;;;1.00;;
21492;SDS011;10908;50.690;4.400;2024-01-15T12:23:58;6.72;;;1.40;;
21492;SDS011;10908;50.690;4.400;2024-01-15T12:26:24;8.65;;;1.17;;
21492;SDS011;10908;50.690;4.400;2024-01-15T12:28:50;7.30;;;1.13;;
21492;SDS011;10908;50.690;4.400;2024-01-15T12:31:16;7.32;;;1.17;;
21492;SDS011;10908;50.690;4.400;2024-01-15T12:33:42;4.05;;;0.73;;
21492;SDS011;10908;50.690;4.400;2024-01-15T12:36:08;10.35;;;1.17;;
21492;SDS011;10908;50.690;4.400;2024-01-15T12:38:33;8.38;;;0.98;;
21492;SDS011;10908;50.690;4.400;2024-01-15T12:41:00;7.07;;;1.20;;
21492;SDS011;10908;50.690;4.400;2024-01-15T12:43:26;10.50;;;1.20;;
21492;SDS011;10908;50.690;4.400;2024-01-15T12:45:51;4.22;;;0.95;;
21492;SDS011;10908;50.690;4.400;2024-01-15T12:48:17;6.07;;;1.10;;
21492;SDS011;10908;50.690;4.400;2024-01-15T12:50:43;5.38;;;1.05;;
21492;SDS011;10908;50.690;4.400;2024-01-15T12:53:10;8.50;;;1.00;;
21492;SDS011;10908;50.690;4.400;2024-01-15T12:55:36;6.85;;;0.90;;
21492;SDS011;10908;50.690;4.400;2024-01-15T12:58:01;5.70;;;1.00;;
21492;SDS011;10908;50.690;4.400;2024-01-15T13:00:27;7.70;;;0.98;;
21492;SDS011;10908;50.690;4.400;2024-01-15T13:02:53;5.10;;;1.13;;
21492;SDS011;10908;50.690;4.400;2024-01-15T13:05:19;5.40;;;0.88;;
21492;SDS011;10908;50.690;4.400;2024-01-15T13:07:46;6.65;;;1.23;;
21492;SDS011;10908;50.690;4.400;2024-01-15T13:10:12;5.32;;;1.15;;
21492;SDS011;10908;50.690;4.400;2024-01-15T13:12:38;10.70;;;1.48;;
21492;SDS011;10908;50.690;4.400;2024-01-15T13:15:04;9.27;;;1.02;;
21492;SDS011;10908;50.690;4.400;2024-01-15T13:17:30;10.45;;;1.38;;
21492;SDS011;10908;50.690;4.400;2024-01-15T13:19:56;7.38;;;1.08;;
21492;SDS011;10908;50.690;4.400;2024-01-15T13:22:22;5.05;;;1.00;;
21492;SDS011;10908;50.690;4.400;2024-01-15T13:24:49;6.18;;;0.88;;
21492;SDS011;10908;50.690;4.400;2024-01-15T13:27:14;7.10;;;0.98;;
21492;SDS011;10908;50.690;4.400;2024-01-15T13:29:40;8.95;;;1.58;;
21492;SDS011;10908;50.690;4.400;2024-01-15T13:32:06;5.97;;;1.20;;
21492;SDS011;10908;50.690;4.400;2024-01-15T13:34:32;8.70;;;1.00;;
21492;SDS011;10908;50.690;4.400;2024-01-15T13:36:58;8.68;;;1.15;;
21492;SDS011;10908;50.690;4.400;2024-01-15T13:39:23;9.90;;;1.33;;
21492;SDS011;10908;50.690;4.400;2024-01-15T13:41:49;8.40;;;1.50;;
21492;SDS011;10908;50.690;4.400;2024-01-15T13:44:15;10.27;;;1.58;;
21492;SDS011;10908;50.690;4.400;2024-01-15T13:46:41;8.50;;;1.45;;
21492;SDS011;10908;50.690;4.400;2024-01-15T13:49:07;6.32;;;1.58;;
21492;SDS011;10908;50.690;4.400;2024-01-15T13:51:34;9.50;;;1.20;;
21492;SDS011;10908;50.690;4.400;2024-01-15T13:54:01;6.47;;;1.10;;
21492;SDS011;10908;50.690;4.400;2024-01-15T13:56:29;6.93;;;0.95;;
21492;SDS011;10908;50.690;4.400;2024-01-15T13:58:57;10.98;;;1.42;;
21492;SDS011;10908;50.690;4.400;2024-01-15T14:01:23;11.52;;;1.90;;
21492;SDS011;10908;50.690;4.400;2024-01-15T14:03:50;11.82;;;2.13;;
21492;SDS011;10908;50.690;4.400;2024-01-15T14:06:15;11.18;;;1.80;;
21492;SDS011;10908;50.690;4.400;2024-01-15T14:08:41;8.45;;;1.35;;
21492;SDS011;10908;50.690;4.400;2024-01-15T14:11:07;5.32;;;0.75;;
21492;SDS011;10908;50.690;4.400;2024-01-15T14:13:35;9.75;;;1.52;;
21492;SDS011;10908;50.690;4.400;2024-01-15T14:16:03;8.90;;;1.23;;
21492;SDS011;10908;50.690;4.400;2024-01-15T14:18:30;12.38;;;2.78;;
21492;SDS011;10908;50.690;4.400;2024-01-15T14:20:57;6.95;;;1.30;;
21492;SDS011;10908;50.690;4.400;2024-01-15T14:23:22;8.23;;;1.45;;
21492;SDS011;10908;50.690;4.400;2024-01-15T14:25:48;8.10;;;1.27;;
21492;SDS011;10908;50.690;4.400;2024-01-15T14:28:14;6.07;;;1.30;;
21492;SDS011;10908;50.690;4.400;2024-01-15T14:30:40;8.15;;;1.70;;
21492;SDS011;10908;50.690;4.400;2024-01-15T14:33:05;8.40;;;1.60;;
21492;SDS011;10908;50.690;4.400;2024-01-15T14:35:31;10.15;;;1.60;;
21492;SDS011;10908;50.690;4.400;2024-01-15T14:37:57;9.50;;;1.65;;
21492;SDS011;10908;50.690;4.400;2024-01-15T14:40:23;9.85;;;1.65;;
21492;SDS011;10908;50.690;4.400;2024-01-15T14:42:50;7.32;;;1.60;;